sensor_id;sensor_type;location;lat;lon;timestamp;temperature;humidity
28947;DHT22;16052;50.930;5.326;2023-06-19T00:00:33;22.90;1.00
28947;DHT22;16052;50.930;5.326;2023-06-19T00:02:58;22.90;1.00
28947;DHT22;16052;50.930;5.326;2023-06-19T00:05:24;22.90;1.00
28947;DHT22;16052;50.930;5.326;2023-06-19T00:07:50;22.80;1.00
28947;DHT22;16052;50.930;5.326;2023-06-19T00:10:16;22.80;1.00
28947;DHT22;16052;50.930;5.326;2023-06-19T00:12:42;22.60;1.00
28947;DHT22;16052;50.930;5.326;2023-06-19T00:15:08;22.60;1.00
28947;DHT22;16052;50.930;5.326;2023-06-19T00:17:35;22.70;1.00
28947;DHT22;16052;50.930;5.326;2023-06-19T00:20:03;22.60;1.00
28947;DHT22;16052;50.930;5.326;2023-06-19T00:22:31;22.60;1.00
28947;DHT22;16052;50.930;5.326;2023-06-19T00:24:58;22.60;1.00
28947;DHT22;16052;50.930;5.326;2023-06-19T00:27:24;22.50;1.00
28947;DHT22;16052;50.930;5.326;2023-06-19T00:29:53;22.50;1.00
28947;DHT22;16052;50.930;5.326;2023-06-19T00:32:18;22.50;1.00
28947;DHT22;16052;50.930;5.326;2023-06-19T00:34:45;22.60;1.00
28947;DHT22;16052;50.930;5.326;2023-06-19T00:37:10;22.40;1.00
28947;DHT22;16052;50.930;5.326;2023-06-19T00:39:38;22.40;1.00
28947;DHT22;16052;50.930;5.326;2023-06-19T00:42:05;22.40;1.00
28947;DHT22;16052;50.930;5.326;2023-06-19T00:44:30;22.50;1.00
28947;DHT22;16052;50.930;5.326;2023-06-19T00:47:02;22.50;1.00
28947;DHT22;16052;50.930;5.326;2023-06-19T00:49:29;22.50;1.00
28947;DHT22;16052;50.930;5.326;2023-06-19T00:51:55;22.40;1.00
28947;DHT22;16052;50.930;5.326;2023-06-19T00:54:21;22.40;1.00
28947;DHT22;16052;50.930;5.326;2023-06-19T00:56:47;22.50;1.00
28947;DHT22;16052;50.930;5.326;2023-06-19T00:59:19;22.60;1.00
28947;DHT22;16052;50.930;5.326;2023-06-19T01:01:45;22.60;1.00
28947;DHT22;16052;50.930;5.326;2023-06-19T01:04:11;22.50;1.00
28947;DHT22;16052;50.930;5.326;2023-06-19T01:07:05;22.50;1.00
28947;DHT22;16052;50.930;5.326;2023-06-19T01:09:49;22.40;1.00
28947;DHT22;16052;50.930;5.326;2023-06-19T01:12:34;22.30;4.80
28947;DHT22;16052;50.930;5.326;2023-06-19T01:15:03;22.30;8.10
28947;DHT22;16052;50.930;5.326;2023-06-19T01:17:31;22.20;11.20
28947;DHT22;16052;50.930;5.326;2023-06-19T01:19:58;22.10;16.80
28947;DHT22;16052;50.930;5.326;2023-06-19T01:22:33;22.10;21.90
28947;DHT22;16052;50.930;5.326;2023-06-19T01:24:59;22.10;22.70
28947;DHT22;16052;50.930;5.326;2023-06-19T01:27:25;21.90;31.30
28947;DHT22;16052;50.930;5.326;2023-06-19T01:29:55;21.90;35.30
28947;DHT22;16052;50.930;5.326;2023-06-19T01:34:52;21.70;43.80
28947;DHT22;16052;50.930;5.326;2023-06-19T01:37:19;21.60;47.10
28947;DHT22;16052;50.930;5.326;2023-06-19T01:39:46;21.60;49.30
28947;DHT22;16052;50.930;5.326;2023-06-19T01:42:13;21.50;51.90
28947;DHT22;16052;50.930;5.326;2023-06-19T01:44:40;21.40;55.70
28947;DHT22;16052;50.930;5.326;2023-06-19T01:47:10;21.40;58.20
28947;DHT22;16052;50.930;5.326;2023-06-19T01:49:36;21.30;63.40
28947;DHT22;16052;50.930;5.326;2023-06-19T01:52:02;21.20;68.60
28947;DHT22;16052;50.930;5.326;2023-06-19T01:54:27;21.10;73.40
28947;DHT22;16052;50.930;5.326;2023-06-19T01:56:53;21.10;75.80
28947;DHT22;16052;50.930;5.326;2023-06-19T01:59:19;21.10;79.80
28947;DHT22;16052;50.930;5.326;2023-06-19T02:01:44;21.00;83.90
28947;DHT22;16052;50.930;5.326;2023-06-19T02:04:10;21.00;87.30
28947;DHT22;16052;50.930;5.326;2023-06-19T02:06:36;20.90;90.50
28947;DHT22;16052;50.930;5.326;2023-06-19T02:09:01;20.80;92.70
28947;DHT22;16052;50.930;5.326;2023-06-19T02:11:27;20.70;93.40
28947;DHT22;16052;50.930;5.326;2023-06-19T02:13:53;20.70;95.50
28947;DHT22;16052;50.930;5.326;2023-06-19T02:16:18;20.60;96.50
28947;DHT22;16052;50.930;5.326;2023-06-19T02:18:44;20.60;96.60
28947;DHT22;16052;50.930;5.326;2023-06-19T02:21:09;20.60;96.30
28947;DHT22;16052;50.930;5.326;2023-06-19T02:23:35;20.60;96.70
28947;DHT22;16052;50.930;5.326;2023-06-19T02:26:01;20.60;95.60
28947;DHT22;16052;50.930;5.326;2023-06-19T02:28:26;20.60;96.50
28947;DHT22;16052;50.930;5.326;2023-06-19T02:30:53;20.60;96.40
28947;DHT22;16052;50.930;5.326;2023-06-19T02:33:19;20.60;95.50
28947;DHT22;16052;50.930;5.326;2023-06-19T02:35:45;20.70;95.30
28947;DHT22;16052;50.930;5.326;2023-06-19T02:38:11;20.60;97.00
28947;DHT22;16052;50.930;5.326;2023-06-19T02:40:38;20.60;97.00
28947;DHT22;16052;50.930;5.326;2023-06-19T02:43:04;20.60;97.30
28947;DHT22;16052;50.930;5.326;2023-06-19T02:45:30;20.50;99.70
28947;DHT22;16052;50.930;5.326;2023-06-19T02:47:56;20.40;99.90
28947;DHT22;16052;50.930;5.326;2023-06-19T02:50:21;20.40;99.90
28947;DHT22;16052;50.930;5.326;2023-06-19T02:52:47;20.40;99.90
28947;DHT22;16052;50.930;5.326;2023-06-19T02:55:13;20.50;99.90
28947;DHT22;16052;50.930;5.326;2023-06-19T02:57:38;20.50;99.90
28947;DHT22;16052;50.930;5.326;2023-06-19T03:00:04;20.40;99.90
28947;DHT22;16052;50.930;5.326;2023-06-19T03:02:34;20.20;99.90
28947;DHT22;16052;50.930;5.326;2023-06-19T03:05:02;20.20;99.90
28947;DHT22;16052;50.930;5.326;2023-06-19T03:07:27;20.30;99.90
28947;DHT22;16052;50.930;5.326;2023-06-19T03:09:54;20.20;99.90
28947;DHT22;16052;50.930;5.326;2023-06-19T03:12:20;20.30;99.90
28947;DHT22;16052;50.930;5.326;2023-06-19T03:14:45;20.30;99.90
28947;DHT22;16052;50.930;5.326;2023-06-19T03:17:12;20.10;99.90
28947;DHT22;16052;50.930;5.326;2023-06-19T03:19:38;20.20;99.90
28947;DHT22;16052;50.930;5.326;2023-06-19T03:22:04;20.30;99.90
28947;DHT22;16052;50.930;5.326;2023-06-19T03:24:30;20.40;99.90
28947;DHT22;16052;50.930;5.326;2023-06-19T03:26:56;20.50;99.90
28947;DHT22;16052;50.930;5.326;2023-06-19T03:29:21;20.50;99.90
28947;DHT22;16052;50.930;5.326;2023-06-19T03:31:47;20.60;99.90
28947;DHT22;16052;50.930;5.326;2023-06-19T03:34:13;20.30;99.90
28947;DHT22;16052;50.930;5.326;2023-06-19T03:36:38;20.30;99.90
28947;DHT22;16052;50.930;5.326;2023-06-19T03:39:04;20.40;99.90
28947;DHT22;16052;50.930;5.326;2023-06-19T03:41:30;20.40;99.90
28947;DHT22;16052;50.930;5.326;2023-06-19T03:43:55;20.30;99.90
28947;DHT22;16052;50.930;5.326;2023-06-19T03:46:21;20.30;99.90
28947;DHT22;16052;50.930;5.326;2023-06-19T03:48:46;20.40;99.90
28947;DHT22;16052;50.930;5.326;2023-06-19T03:51:12;20.30;99.90
28947;DHT22;16052;50.930;5.326;2023-06-19T03:53:38;20.30;99.90
28947;DHT22;16052;50.930;5.326;2023-06-19T03:56:03;20.40;99.90
28947;DHT22;16052;50.930;5.326;2023-06-19T03:58:29;20.40;99.90
28947;DHT22;16052;50.930;5.326;2023-06-19T04:00:54;20.40;99.90
28947;DHT22;16052;50.930;5.326;2023-06-19T04:03:20;20.40;99.90
28947;DHT22;16052;50.930;5.326;2023-06-19T04:05:46;20.40;99.90
28947;DHT22;16052;50.930;5.326;2023-06-19T04:08:11;20.30;99.90
28947;DHT22;16052;50.930;5.326;2023-06-19T04:10:37;20.50;99.90
28947;DHT22;16052;50.930;5.326;2023-06-19T04:13:03;20.60;99.90
28947;DHT22;16052;50.930;5.326;2023-06-19T04:15:28;20.40;99.90
28947;DHT22;16052;50.930;5.326;2023-06-19T04:17:54;20.30;99.90
28947;DHT22;16052;50.930;5.326;2023-06-19T04:20:20;20.30;99.90
28947;DHT22;16052;50.930;5.326;2023-06-19T04:22:45;20.30;99.90
28947;DHT22;16052;50.930;5.326;2023-06-19T04:25:11;20.40;99.90
28947;DHT22;16052;50.930;5.326;2023-06-19T04:27:38;20.50;99.90
28947;DHT22;16052;50.930;5.326;2023-06-19T04:30:04;20.40;99.90
28947;DHT22;16052;50.930;5.326;2023-06-19T04:32:33;20.40;99.90
28947;DHT22;16052;50.930;5.326;2023-06-19T04:35:00;20.30;99.90
28947;DHT22;16052;50.930;5.326;2023-06-19T04:37:27;20.30;99.90
28947;DHT22;16052;50.930;5.326;2023-06-19T04:39:53;20.30;99.90
28947;DHT22;16052;50.930;5.326;2023-06-19T04:42:19;20.20;99.90
28947;DHT22;16052;50.930;5.326;2023-06-19T04:44:47;20.00;99.90
28947;DHT22;16052;50.930;5.326;2023-06-19T04:47:18;19.90;99.90
28947;DHT22;16052;50.930;5.326;2023-06-19T04:49:44;20.00;99.90
28947;DHT22;16052;50.930;5.326;2023-06-19T04:52:09;20.00;99.90
28947;DHT22;16052;50.930;5.326;2023-06-19T04:54:36;20.00;99.90
28947;DHT22;16052;50.930;5.326;2023-06-19T04:57:02;20.10;99.90
28947;DHT22;16052;50.930;5.326;2023-06-19T04:59:28;20.10;99.90
28947;DHT22;16052;50.930;5.326;2023-06-19T05:01:56;20.00;99.90
28947;DHT22;16052;50.930;5.326;2023-06-19T05:04:22;20.00;99.90
28947;DHT22;16052;50.930;5.326;2023-06-19T05:06:50;20.00;99.90
28947;DHT22;16052;50.930;5.326;2023-06-19T05:09:17;20.00;99.90
28947;DHT22;16052;50.930;5.326;2023-06-19T05:11:43;20.10;99.90
28947;DHT22;16052;50.930;5.326;2023-06-19T05:14:10;20.00;99.90
28947;DHT22;16052;50.930;5.326;2023-06-19T05:16:36;19.90;99.90
28947;DHT22;16052;50.930;5.326;2023-06-19T05:19:02;19.80;99.90
28947;DHT22;16052;50.930;5.326;2023-06-19T05:21:28;19.90;99.90
28947;DHT22;16052;50.930;5.326;2023-06-19T05:23:53;19.90;99.90
28947;DHT22;16052;50.930;5.326;2023-06-19T05:26:22;20.00;99.90
28947;DHT22;16052;50.930;5.326;2023-06-19T05:28:49;20.00;99.90
28947;DHT22;16052;50.930;5.326;2023-06-19T05:31:14;20.10;99.90
28947;DHT22;16052;50.930;5.326;2023-06-19T05:33:40;20.10;99.90
28947;DHT22;16052;50.930;5.326;2023-06-19T05:36:06;20.00;99.90
28947;DHT22;16052;50.930;5.326;2023-06-19T05:38:32;20.00;99.90
28947;DHT22;16052;50.930;5.326;2023-06-19T05:40:58;20.10;99.90
28947;DHT22;16052;50.930;5.326;2023-06-19T05:43:24;20.10;99.90
28947;DHT22;16052;50.930;5.326;2023-06-19T05:45:50;20.10;99.90
28947;DHT22;16052;50.930;5.326;2023-06-19T05:48:16;20.00;99.90
28947;DHT22;16052;50.930;5.326;2023-06-19T05:50:41;20.10;99.90
28947;DHT22;16052;50.930;5.326;2023-06-19T05:53:07;20.10;99.90
28947;DHT22;16052;50.930;5.326;2023-06-19T05:55:32;20.30;99.90
28947;DHT22;16052;50.930;5.326;2023-06-19T05:57:58;20.30;99.90
28947;DHT22;16052;50.930;5.326;2023-06-19T06:00:24;20.40;99.90
28947;DHT22;16052;50.930;5.326;2023-06-19T06:02:49;20.40;99.90
28947;DHT22;16052;50.930;5.326;2023-06-19T06:05:17;20.40;99.90
28947;DHT22;16052;50.930;5.326;2023-06-19T06:07:44;20.40;99.90
28947;DHT22;16052;50.930;5.326;2023-06-19T06:10:10;20.30;99.90
28947;DHT22;16052;50.930;5.326;2023-06-19T06:12:35;20.30;99.90
28947;DHT22;16052;50.930;5.326;2023-06-19T06:15:02;20.30;99.90
28947;DHT22;16052;50.930;5.326;2023-06-19T06:17:28;20.40;99.90
28947;DHT22;16052;50.930;5.326;2023-06-19T06:19:54;20.40;99.90
28947;DHT22;16052;50.930;5.326;2023-06-19T06:22:20;20.40;99.90
28947;DHT22;16052;50.930;5.326;2023-06-19T06:24:46;20.50;99.90
28947;DHT22;16052;50.930;5.326;2023-06-19T06:27:12;20.50;99.90
28947;DHT22;16052;50.930;5.326;2023-06-19T06:29:38;20.60;99.90
28947;DHT22;16052;50.930;5.326;2023-06-19T06:32:05;20.60;99.90
28947;DHT22;16052;50.930;5.326;2023-06-19T06:34:32;20.60;99.90
28947;DHT22;16052;50.930;5.326;2023-06-19T06:36:58;20.60;99.90
28947;DHT22;16052;50.930;5.326;2023-06-19T06:39:24;20.60;99.90
28947;DHT22;16052;50.930;5.326;2023-06-19T06:41:50;20.70;99.90
28947;DHT22;16052;50.930;5.326;2023-06-19T06:44:15;20.80;97.70
28947;DHT22;16052;50.930;5.326;2023-06-19T06:46:41;20.80;98.60
28947;DHT22;16052;50.930;5.326;2023-06-19T06:49:07;20.90;96.30
28947;DHT22;16052;50.930;5.326;2023-06-19T06:51:33;20.90;97.70
28947;DHT22;16052;50.930;5.326;2023-06-19T06:53:58;20.90;97.00
28947;DHT22;16052;50.930;5.326;2023-06-19T06:56:24;20.90;94.50
28947;DHT22;16052;50.930;5.326;2023-06-19T06:58:50;20.80;95.80
28947;DHT22;16052;50.930;5.326;2023-06-19T07:01:15;20.80;94.30
28947;DHT22;16052;50.930;5.326;2023-06-19T07:03:41;20.90;93.20
28947;DHT22;16052;50.930;5.326;2023-06-19T07:06:06;20.90;92.00
28947;DHT22;16052;50.930;5.326;2023-06-19T07:08:32;21.00;91.20
28947;DHT22;16052;50.930;5.326;2023-06-19T07:10:58;21.10;83.60
28947;DHT22;16052;50.930;5.326;2023-06-19T07:13:24;21.20;78.50
28947;DHT22;16052;50.930;5.326;2023-06-19T07:15:50;21.20;73.80
28947;DHT22;16052;50.930;5.326;2023-06-19T07:18:15;21.30;71.50
28947;DHT22;16052;50.930;5.326;2023-06-19T07:20:41;21.30;70.50
28947;DHT22;16052;50.930;5.326;2023-06-19T07:23:07;21.40;63.20
28947;DHT22;16052;50.930;5.326;2023-06-19T07:25:33;21.40;65.10
28947;DHT22;16052;50.930;5.326;2023-06-19T07:28:00;21.30;63.50
28947;DHT22;16052;50.930;5.326;2023-06-19T07:30:26;21.40;64.60
28947;DHT22;16052;50.930;5.326;2023-06-19T07:32:51;21.40;62.90
28947;DHT22;16052;50.930;5.326;2023-06-19T07:35:17;21.40;60.80
28947;DHT22;16052;50.930;5.326;2023-06-19T07:37:43;21.30;62.30
28947;DHT22;16052;50.930;5.326;2023-06-19T07:40:10;21.40;66.10
28947;DHT22;16052;50.930;5.326;2023-06-19T07:42:35;21.40;65.70
28947;DHT22;16052;50.930;5.326;2023-06-19T07:45:01;21.40;67.50
28947;DHT22;16052;50.930;5.326;2023-06-19T07:47:27;21.50;64.20
28947;DHT22;16052;50.930;5.326;2023-06-19T07:49:53;21.50;63.70
28947;DHT22;16052;50.930;5.326;2023-06-19T07:52:19;21.60;61.30
28947;DHT22;16052;50.930;5.326;2023-06-19T07:54:53;21.60;62.20
28947;DHT22;16052;50.930;5.326;2023-06-19T07:57:20;21.60;65.90
28947;DHT22;16052;50.930;5.326;2023-06-19T07:59:47;21.50;62.40
28947;DHT22;16052;50.930;5.326;2023-06-19T08:02:12;21.50;65.20
28947;DHT22;16052;50.930;5.326;2023-06-19T08:04:38;21.40;67.60
28947;DHT22;16052;50.930;5.326;2023-06-19T08:07:04;21.40;68.90
28947;DHT22;16052;50.930;5.326;2023-06-19T08:09:29;21.40;69.30
28947;DHT22;16052;50.930;5.326;2023-06-19T08:11:55;21.50;69.30
28947;DHT22;16052;50.930;5.326;2023-06-19T08:14:21;21.70;70.20
28947;DHT22;16052;50.930;5.326;2023-06-19T08:16:47;21.50;70.80
28947;DHT22;16052;50.930;5.326;2023-06-19T08:19:13;21.50;68.40
28947;DHT22;16052;50.930;5.326;2023-06-19T08:21:38;21.60;64.90
28947;DHT22;16052;50.930;5.326;2023-06-19T08:24:04;21.50;64.40
28947;DHT22;16052;50.930;5.326;2023-06-19T08:26:30;21.50;63.10
28947;DHT22;16052;50.930;5.326;2023-06-19T08:28:55;21.60;61.00
28947;DHT22;16052;50.930;5.326;2023-06-19T08:31:21;21.70;57.40
28947;DHT22;16052;50.930;5.326;2023-06-19T08:33:55;21.70;56.10
28947;DHT22;16052;50.930;5.326;2023-06-19T08:36:21;21.80;56.90
28947;DHT22;16052;50.930;5.326;2023-06-19T08:38:47;21.70;57.50
28947;DHT22;16052;50.930;5.326;2023-06-19T08:41:15;21.70;57.20
28947;DHT22;16052;50.930;5.326;2023-06-19T08:43:41;21.70;57.10
28947;DHT22;16052;50.930;5.326;2023-06-19T08:46:17;21.60;49.60
28947;DHT22;16052;50.930;5.326;2023-06-19T08:48:44;21.60;54.90
28947;DHT22;16052;50.930;5.326;2023-06-19T08:51:10;21.70;54.60
28947;DHT22;16052;50.930;5.326;2023-06-19T08:53:43;21.70;52.40
28947;DHT22;16052;50.930;5.326;2023-06-19T08:56:09;21.80;49.10
28947;DHT22;16052;50.930;5.326;2023-06-19T08:58:35;21.70;49.00
28947;DHT22;16052;50.930;5.326;2023-06-19T09:01:01;21.70;48.60
28947;DHT22;16052;50.930;5.326;2023-06-19T09:03:26;21.80;46.40
28947;DHT22;16052;50.930;5.326;2023-06-19T09:05:52;21.70;48.90
28947;DHT22;16052;50.930;5.326;2023-06-19T09:08:19;21.90;43.90
28947;DHT22;16052;50.930;5.326;2023-06-19T09:10:59;22.00;32.80
28947;DHT22;16052;50.930;5.326;2023-06-19T09:13:25;22.10;35.50
28947;DHT22;16052;50.930;5.326;2023-06-19T09:16:04;22.10;34.70
28947;DHT22;16052;50.930;5.326;2023-06-19T09:18:32;22.30;30.00
28947;DHT22;16052;50.930;5.326;2023-06-19T09:21:06;22.30;28.90
28947;DHT22;16052;50.930;5.326;2023-06-19T09:23:39;22.40;24.80
28947;DHT22;16052;50.930;5.326;2023-06-19T09:26:05;22.40;21.50
28947;DHT22;16052;50.930;5.326;2023-06-19T09:28:31;22.40;25.60
28947;DHT22;16052;50.930;5.326;2023-06-19T09:31:03;22.50;27.10
28947;DHT22;16052;50.930;5.326;2023-06-19T09:33:31;22.60;23.20
28947;DHT22;16052;50.930;5.326;2023-06-19T09:35:58;22.70;17.40
28947;DHT22;16052;50.930;5.326;2023-06-19T09:38:26;22.80;17.90
28947;DHT22;16052;50.930;5.326;2023-06-19T09:40:52;22.60;21.70
28947;DHT22;16052;50.930;5.326;2023-06-19T09:43:22;22.60;20.60
28947;DHT22;16052;50.930;5.326;2023-06-19T09:45:49;22.70;17.40
28947;DHT22;16052;50.930;5.326;2023-06-19T09:48:19;22.80;19.80
28947;DHT22;16052;50.930;5.326;2023-06-19T09:50:50;23.00;19.60
28947;DHT22;16052;50.930;5.326;2023-06-19T09:53:18;23.00;16.50
28947;DHT22;16052;50.930;5.326;2023-06-19T09:55:44;23.10;15.00
28947;DHT22;16052;50.930;5.326;2023-06-19T09:58:10;23.10;12.90
28947;DHT22;16052;50.930;5.326;2023-06-19T10:00:36;23.10;13.50
28947;DHT22;16052;50.930;5.326;2023-06-19T10:03:02;23.10;12.80
28947;DHT22;16052;50.930;5.326;2023-06-19T10:05:33;23.20;9.40
28947;DHT22;16052;50.930;5.326;2023-06-19T10:07:58;23.20;10.40
28947;DHT22;16052;50.930;5.326;2023-06-19T10:10:26;23.30;11.00
28947;DHT22;16052;50.930;5.326;2023-06-19T10:12:57;23.40;10.20
28947;DHT22;16052;50.930;5.326;2023-06-19T10:15:27;23.40;8.70
28947;DHT22;16052;50.930;5.326;2023-06-19T10:18:06;23.40;4.50
28947;DHT22;16052;50.930;5.326;2023-06-19T10:20:33;23.50;3.40
28947;DHT22;16052;50.930;5.326;2023-06-19T10:23:03;23.50;2.00
28947;DHT22;16052;50.930;5.326;2023-06-19T10:25:31;23.40;1.70
28947;DHT22;16052;50.930;5.326;2023-06-19T10:27:58;23.50;5.50
28947;DHT22;16052;50.930;5.326;2023-06-19T10:30:24;23.50;3.90
28947;DHT22;16052;50.930;5.326;2023-06-19T10:32:50;23.60;7.00
28947;DHT22;16052;50.930;5.326;2023-06-19T10:35:17;23.70;1.00
28947;DHT22;16052;50.930;5.326;2023-06-19T10:37:43;23.80;1.00
28947;DHT22;16052;50.930;5.326;2023-06-19T10:40:10;23.80;1.00
28947;DHT22;16052;50.930;5.326;2023-06-19T10:42:38;23.70;1.00
28947;DHT22;16052;50.930;5.326;2023-06-19T10:45:08;23.80;1.00
28947;DHT22;16052;50.930;5.326;2023-06-19T10:47:34;23.80;1.00
28947;DHT22;16052;50.930;5.326;2023-06-19T10:50:00;23.90;1.00
28947;DHT22;16052;50.930;5.326;2023-06-19T10:52:29;23.80;1.00
28947;DHT22;16052;50.930;5.326;2023-06-19T10:54:55;23.80;1.00
28947;DHT22;16052;50.930;5.326;2023-06-19T10:57:29;24.00;1.00
28947;DHT22;16052;50.930;5.326;2023-06-19T10:59:54;24.00;1.00
28947;DHT22;16052;50.930;5.326;2023-06-19T11:02:21;24.10;1.00
28947;DHT22;16052;50.930;5.326;2023-06-19T11:04:47;24.10;1.00
28947;DHT22;16052;50.930;5.326;2023-06-19T11:07:14;24.10;1.00
28947;DHT22;16052;50.930;5.326;2023-06-19T11:09:40;24.10;1.00
28947;DHT22;16052;50.930;5.326;2023-06-19T11:12:06;24.00;1.00
28947;DHT22;16052;50.930;5.326;2023-06-19T11:14:33;23.90;1.00
28947;DHT22;16052;50.930;5.326;2023-06-19T11:17:05;24.00;1.00
28947;DHT22;16052;50.930;5.326;2023-06-19T11:19:32;24.20;1.00
28947;DHT22;16052;50.930;5.326;2023-06-19T11:22:00;24.30;1.00
28947;DHT22;16052;50.930;5.326;2023-06-19T11:24:28;24.50;1.00
28947;DHT22;16052;50.930;5.326;2023-06-19T11:26:56;24.50;1.00
28947;DHT22;16052;50.930;5.326;2023-06-19T11:29:29;24.50;1.00
28947;DHT22;16052;50.930;5.326;2023-06-19T11:32:09;24.30;1.00
28947;DHT22;16052;50.930;5.326;2023-06-19T11:34:36;24.50;1.00
28947;DHT22;16052;50.930;5.326;2023-06-19T11:37:15;24.70;1.00
28947;DHT22;16052;50.930;5.326;2023-06-19T11:39:44;24.80;1.00
28947;DHT22;16052;50.930;5.326;2023-06-19T11:42:11;24.90;1.00
28947;DHT22;16052;50.930;5.326;2023-06-19T11:44:55;25.00;1.00
28947;DHT22;16052;50.930;5.326;2023-06-19T11:47:21;25.10;1.00
28947;DHT22;16052;50.930;5.326;2023-06-19T11:49:50;25.10;1.00
28947;DHT22;16052;50.930;5.326;2023-06-19T11:52:16;25.10;1.00
28947;DHT22;16052;50.930;5.326;2023-06-19T11:54:42;25.10;1.00
28947;DHT22;16052;50.930;5.326;2023-06-19T11:57:09;25.30;1.00
28947;DHT22;16052;50.930;5.326;2023-06-19T11:59:38;25.30;1.00
28947;DHT22;16052;50.930;5.326;2023-06-19T12:02:04;25.30;1.00
28947;DHT22;16052;50.930;5.326;2023-06-19T12:04:30;25.40;1.00
28947;DHT22;16052;50.930;5.326;2023-06-19T12:06:56;25.50;1.00
28947;DHT22;16052;50.930;5.326;2023-06-19T12:09:21;25.70;1.00
28947;DHT22;16052;50.930;5.326;2023-06-19T12:11:47;25.60;1.00
28947;DHT22;16052;50.930;5.326;2023-06-19T12:14:12;25.40;1.00
28947;DHT22;16052;50.930;5.326;2023-06-19T12:16:38;25.40;1.00
28947;DHT22;16052;50.930;5.326;2023-06-19T12:19:04;25.30;1.00
28947;DHT22;16052;50.930;5.326;2023-06-19T12:21:30;25.40;1.00
28947;DHT22;16052;50.930;5.326;2023-06-19T12:23:55;25.60;1.00
28947;DHT22;16052;50.930;5.326;2023-06-19T12:26:21;25.80;1.00
28947;DHT22;16052;50.930;5.326;2023-06-19T12:28:47;25.90;1.00
28947;DHT22;16052;50.930;5.326;2023-06-19T12:31:12;25.80;1.00
28947;DHT22;16052;50.930;5.326;2023-06-19T12:33:38;25.70;99.90
28947;DHT22;16052;50.930;5.326;2023-06-19T12:36:10;25.80;1.00
28947;DHT22;16052;50.930;5.326;2023-06-19T12:38:38;25.80;99.90
28947;DHT22;16052;50.930;5.326;2023-06-19T12:41:04;25.80;99.90
28947;DHT22;16052;50.930;5.326;2023-06-19T12:43:29;25.90;99.90
28947;DHT22;16052;50.930;5.326;2023-06-19T12:45:57;25.90;99.90
28947;DHT22;16052;50.930;5.326;2023-06-19T12:48:25;25.80;99.90
28947;DHT22;16052;50.930;5.326;2023-06-19T12:50:50;25.80;99.90
28947;DHT22;16052;50.930;5.326;2023-06-19T12:53:17;25.90;99.90
28947;DHT22;16052;50.930;5.326;2023-06-19T12:55:44;26.00;99.90
28947;DHT22;16052;50.930;5.326;2023-06-19T12:58:10;26.00;99.90
28947;DHT22;16052;50.930;5.326;2023-06-19T13:00:36;26.30;99.90
28947;DHT22;16052;50.930;5.326;2023-06-19T13:03:02;26.40;99.90
28947;DHT22;16052;50.930;5.326;2023-06-19T13:05:28;26.30;99.90
28947;DHT22;16052;50.930;5.326;2023-06-19T13:07:54;26.40;99.90
28947;DHT22;16052;50.930;5.326;2023-06-19T13:10:21;26.70;99.90
28947;DHT22;16052;50.930;5.326;2023-06-19T13:12:46;26.80;99.90
28947;DHT22;16052;50.930;5.326;2023-06-19T13:15:13;27.00;99.90
28947;DHT22;16052;50.930;5.326;2023-06-19T13:17:41;27.20;99.90
28947;DHT22;16052;50.930;5.326;2023-06-19T13:20:07;27.30;99.90
28947;DHT22;16052;50.930;5.326;2023-06-19T13:22:32;27.20;99.90
28947;DHT22;16052;50.930;5.326;2023-06-19T13:24:58;27.20;99.90
28947;DHT22;16052;50.930;5.326;2023-06-19T13:27:24;27.30;97.60
28947;DHT22;16052;50.930;5.326;2023-06-19T13:29:50;27.20;20.90
28947;DHT22;16052;50.930;5.326;2023-06-19T13:32:15;27.10;49.10
28947;DHT22;16052;50.930;5.326;2023-06-19T13:34:42;27.10;37.90
28947;DHT22;16052;50.930;5.326;2023-06-19T13:37:07;27.10;99.90
28947;DHT22;16052;50.930;5.326;2023-06-19T13:39:34;27.20;99.90
28947;DHT22;16052;50.930;5.326;2023-06-19T13:42:00;27.20;99.90
28947;DHT22;16052;50.930;5.326;2023-06-19T13:44:26;27.50;99.90
28947;DHT22;16052;50.930;5.326;2023-06-19T13:46:53;27.50;99.90
28947;DHT22;16052;50.930;5.326;2023-06-19T13:49:19;27.60;99.90
28947;DHT22;16052;50.930;5.326;2023-06-19T13:51:45;27.50;99.90
28947;DHT22;16052;50.930;5.326;2023-06-19T13:54:11;27.50;99.90
28947;DHT22;16052;50.930;5.326;2023-06-19T13:56:39;27.40;99.90
28947;DHT22;16052;50.930;5.326;2023-06-19T13:59:05;27.40;99.90
28947;DHT22;16052;50.930;5.326;2023-06-19T14:01:31;27.30;99.90
28947;DHT22;16052;50.930;5.326;2023-06-19T14:03:57;27.50;99.90
28947;DHT22;16052;50.930;5.326;2023-06-19T14:06:24;27.50;99.90
28947;DHT22;16052;50.930;5.326;2023-06-19T14:08:50;27.50;99.90
28947;DHT22;16052;50.930;5.326;2023-06-19T14:11:17;27.40;99.90
28947;DHT22;16052;50.930;5.326;2023-06-19T14:13:43;27.40;99.90
28947;DHT22;16052;50.930;5.326;2023-06-19T14:16:09;27.40;99.90
28947;DHT22;16052;50.930;5.326;2023-06-19T14:18:34;27.60;99.90
28947;DHT22;16052;50.930;5.326;2023-06-19T14:21:04;27.90;99.90
28947;DHT22;16052;50.930;5.326;2023-06-19T14:23:29;28.00;99.90
28947;DHT22;16052;50.930;5.326;2023-06-19T14:25:58;28.20;99.90
28947;DHT22;16052;50.930;5.326;2023-06-19T14:28:24;28.10;99.90
28947;DHT22;16052;50.930;5.326;2023-06-19T14:30:51;28.00;99.90
28947;DHT22;16052;50.930;5.326;2023-06-19T14:33:16;28.10;99.90
28947;DHT22;16052;50.930;5.326;2023-06-19T14:35:43;28.10;99.90
28947;DHT22;16052;50.930;5.326;2023-06-19T14:38:15;28.20;99.90
28947;DHT22;16052;50.930;5.326;2023-06-19T14:40:41;28.20;99.90
28947;DHT22;16052;50.930;5.326;2023-06-19T14:43:07;28.10;99.90
28947;DHT22;16052;50.930;5.326;2023-06-19T14:45:35;27.90;99.90
28947;DHT22;16052;50.930;5.326;2023-06-19T14:48:01;27.60;99.90
28947;DHT22;16052;50.930;5.326;2023-06-19T14:50:27;27.70;99.90
28947;DHT22;16052;50.930;5.326;2023-06-19T14:52:54;27.50;99.90
28947;DHT22;16052;50.930;5.326;2023-06-19T14:55:19;27.50;99.90
28947;DHT22;16052;50.930;5.326;2023-06-19T14:57:45;27.70;99.90
28947;DHT22;16052;50.930;5.326;2023-06-19T15:00:11;28.00;99.90
28947;DHT22;16052;50.930;5.326;2023-06-19T15:02:38;28.30;99.90
28947;DHT22;16052;50.930;5.326;2023-06-19T15:05:04;28.40;99.90
28947;DHT22;16052;50.930;5.326;2023-06-19T15:07:30;28.60;99.90
28947;DHT22;16052;50.930;5.326;2023-06-19T15:09:55;28.70;99.90
28947;DHT22;16052;50.930;5.326;2023-06-19T15:12:22;28.80;99.90
28947;DHT22;16052;50.930;5.326;2023-06-19T15:14:47;29.00;99.90
28947;DHT22;16052;50.930;5.326;2023-06-19T15:17:14;28.80;99.90
28947;DHT22;16052;50.930;5.326;2023-06-19T15:19:40;28.60;99.90
28947;DHT22;16052;50.930;5.326;2023-06-19T15:22:06;28.60;99.90
28947;DHT22;16052;50.930;5.326;2023-06-19T15:24:34;28.60;99.90
28947;DHT22;16052;50.930;5.326;2023-06-19T15:27:00;28.40;99.90
28947;DHT22;16052;50.930;5.326;2023-06-19T15:29:28;28.30;99.90
28947;DHT22;16052;50.930;5.326;2023-06-19T15:31:55;28.50;99.90
28947;DHT22;16052;50.930;5.326;2023-06-19T15:34:21;28.70;99.90